Kimberley Downs, Australia
Current Conditions -  °F | °C
As of 4:30 PM on Thursday 23 Oct 2014 (Local Time) from YCIN Reporting Station
Clear Clear  
Wind Chill: 93°   Ceiling: Unl
Heat Index: 99°   Visibility: NA
Dew Point: 70°   Wind: 12mph
Humidity: 46%   Direction: 350°N
Pressure: 29.77"   Gusts: NA
Location:  17.4°S, 124.35°E
Report Text: YCIN 230830Z AUTO 35010KT //// // NCD 34/21 Q1008
Loading
Personal Weather Stations






























Interactive Weather Map
Tropical Storm Tracking
New forecast layout! Learn more

10-Day Weather Forecast

Advertisements
Track Severe Weather on mobile